Time;durP1;ratioP1;P1;durP2;ratioP2;P2;SDS_P1;SDS_P2;PMS_P1;PMS_P2;Temp;Humidity;BMP_temperature;BMP_pressure;BME280_temperature;BME280_humidity;BME280_pressure;Samples;Min_cycle;Max_cycle;Signal;HPM_P1;HPM_P2
2024/02/25 00:01:10;;;;;;;3.60;0.63;;;;;;;;;;4980165;28;20131;-79
2024/02/25 00:03:35;;;;;;;1.02;0.50;;;;;;;;;;4973133;28;20085;-78
2024/02/25 00:06:01;;;;;;;4.10;1.50;;;;;;;;;;4975203;28;20038;-78
2024/02/25 00:08:26;;;;;;;4.25;0.95;;;;;;;;;;4974521;28;20483;-78
2024/02/25 00:10:52;;;;;;;7.55;1.00;;;;;;;;;;4969428;28;20050;-78
2024/02/25 00:13:18;;;;;;;3.25;0.70;;;;;;;;;;4974451;28;20124;-78
2024/02/25 00:15:43;;;;;;;5.13;1.30;;;;;;;;;;4965933;28;20117;-78
2024/02/25 00:18:09;;;;;;;2.75;1.00;;;;;;;;;;4975605;28;20037;-78
2024/02/25 00:20:34;;;;;;;20.58;1.60;;;;;;;;;;4972366;28;20035;-79
2024/02/25 00:22:59;;;;;;;0.47;0.40;;;;;;;;;;4962520;28;20762;-79
2024/02/25 00:25:25;;;;;;;0.95;0.50;;;;;;;;;;4971249;28;20054;-78
2024/02/25 00:27:50;;;;;;;1.17;0.50;;;;;;;;;;4959200;28;20061;-79
2024/02/25 00:30:16;;;;;;;8.38;1.10;;;;;;;;;;4977372;28;20459;-78
2024/02/25 00:32:41;;;;;;;3.03;1.17;;;;;;;;;;4945545;28;20046;-78
2024/02/25 00:35:07;;;;;;;0.98;0.70;;;;;;;;;;4974017;28;20355;-79
2024/02/25 00:37:32;;;;;;;4.70;0.85;;;;;;;;;;4973245;28;20080;-79
2024/02/25 00:39:58;;;;;;;0.60;0.50;;;;;;;;;;4975979;28;20493;-78
2024/02/25 00:42:23;;;;;;;1.33;0.80;;;;;;;;;;4962733;28;20101;-78
2024/02/25 00:44:49;;;;;;;1.25;0.40;;;;;;;;;;4962450;28;20043;-78
2024/02/25 00:47:17;;;;;;;1.95;0.80;;;;;;;;;;4976034;28;20046;-78
2024/02/25 00:49:42;;;;;;;0.40;0.38;;;;;;;;;;4958047;28;20418;-78
2024/02/25 00:52:08;;;;;;;1.20;0.50;;;;;;;;;;4978571;28;20096;-78
2024/02/25 00:54:33;;;;;;;2.38;0.88;;;;;;;;;;4978516;28;20049;-78
2024/02/25 00:56:59;;;;;;;2.00;1.00;;;;;;;;;;4969251;28;20568;-78
2024/02/25 00:59:24;;;;;;;0.38;0.35;;;;;;;;;;4980040;28;20037;-78
2024/02/25 01:01:50;;;;;;;0.65;0.40;;;;;;;;;;4967288;28;20034;-78
2024/02/25 01:04:18;;;;;;;1.15;0.50;;;;;;;;;;4972673;28;20162;-78
2024/02/25 01:06:43;;;;;;;0.75;0.50;;;;;;;;;;4969395;28;20866;-77
2024/02/25 01:09:10;;;;;;;0.80;0.40;;;;;;;;;;4968962;28;20050;-77
2024/02/25 01:11:36;;;;;;;0.68;0.50;;;;;;;;;;4972546;28;20048;-78
2024/02/25 01:14:02;;;;;;;0.50;0.40;;;;;;;;;;4979606;28;20057;-77
2024/02/25 01:16:27;;;;;;;0.65;0.50;;;;;;;;;;4966893;28;20509;-77
2024/02/25 01:18:53;;;;;;;0.32;0.30;;;;;;;;;;4968368;28;20050;-79
2024/02/25 01:21:18;;;;;;;0.30;0.30;;;;;;;;;;4974566;28;20061;-78
2024/02/25 01:23:43;;;;;;;1.25;0.60;;;;;;;;;;4968853;28;20124;-78
2024/02/25 01:26:10;;;;;;;1.73;0.88;;;;;;;;;;4975208;28;20412;-77
2024/02/25 01:28:36;;;;;;;1.33;0.43;;;;;;;;;;4976975;28;20050;-77
2024/02/25 01:31:01;;;;;;;0.30;0.30;;;;;;;;;;4971851;28;20499;-76
2024/02/25 01:33:27;;;;;;;3.13;0.80;;;;;;;;;;4965212;28;20045;-76
2024/02/25 01:35:52;;;;;;;0.60;0.50;;;;;;;;;;4979903;28;20065;-78
2024/02/25 01:38:18;;;;;;;1.35;0.73;;;;;;;;;;4968344;28;20053;-77
2024/02/25 01:40:44;;;;;;;0.80;0.30;;;;;;;;;;4954994;28;20401;-77
2024/02/25 01:43:16;;;;;;;0.85;0.60;;;;;;;;;;4974775;28;20141;-78
2024/02/25 01:45:42;;;;;;;1.02;0.52;;;;;;;;;;4969939;28;20055;-78
2024/02/25 01:48:15;;;;;;;2.83;0.75;;;;;;;;;;4972627;28;20049;-77
2024/02/25 01:50:41;;;;;;;0.60;0.52;;;;;;;;;;4959471;28;20054;-77
2024/02/25 01:53:07;;;;;;;1.48;0.57;;;;;;;;;;4959282;28;20037;-76
2024/02/25 01:55:35;;;;;;;1.63;0.55;;;;;;;;;;4961774;28;20054;-76
2024/02/25 01:58:05;;;;;;;0.50;0.50;;;;;;;;;;4971397;28;20038;-77
2024/02/25 02:00:31;;;;;;;0.88;0.50;;;;;;;;;;4970263;28;20056;-76
2024/02/25 02:02:59;;;;;;;0.20;0.20;;;;;;;;;;4974139;28;20034;-77
2024/02/25 02:05:27;;;;;;;0.60;0.60;;;;;;;;;;4960810;28;20613;-76
2024/02/25 02:07:53;;;;;;;0.55;0.43;;;;;;;;;;4969871;28;20680;-76
2024/02/25 02:10:19;;;;;;;1.15;0.70;;;;;;;;;;4963184;28;20077;-77
2024/02/25 02:12:45;;;;;;;1.00;0.68;;;;;;;;;;4976476;28;20038;-77
2024/02/25 02:15:12;;;;;;;2.25;1.17;;;;;;;;;;4950754;28;20045;-78
2024/02/25 02:17:40;;;;;;;0.43;0.40;;;;;;;;;;4975511;28;20045;-79
2024/02/25 02:20:11;;;;;;;1.27;0.50;;;;;;;;;;4972294;28;20049;-78
2024/02/25 02:22:40;;;;;;;2.33;0.77;;;;;;;;;;4975682;28;20072;-78
2024/02/25 02:25:06;;;;;;;1.40;0.60;;;;;;;;;;4964924;28;20046;-78
2024/02/25 02:27:32;;;;;;;1.20;1.10;;;;;;;;;;4971791;28;20134;-78
2024/02/25 02:29:58;;;;;;;1.02;0.63;;;;;;;;;;4960280;28;20121;-78
2024/02/25 02:32:23;;;;;;;1.80;1.05;;;;;;;;;;4978050;28;20037;-78
2024/02/25 02:34:48;;;;;;;2.25;1.17;;;;;;;;;;4962489;28;20113;-77
2024/02/25 02:37:14;;;;;;;2.28;0.73;;;;;;;;;;4966857;28;20041;-78
2024/02/25 02:39:39;;;;;;;1.42;1.00;;;;;;;;;;4967519;28;20038;-78
2024/02/25 02:42:05;;;;;;;2.17;0.80;;;;;;;;;;4975270;28;20069;-78
2024/02/25 02:44:31;;;;;;;0.98;0.60;;;;;;;;;;4962675;28;20061;-78
2024/02/25 02:46:57;;;;;;;1.27;0.85;;;;;;;;;;4983481;28;20046;-77
2024/02/25 02:49:22;;;;;;;2.05;0.95;;;;;;;;;;4980792;28;20510;-78
2024/02/25 02:51:48;;;;;;;1.35;1.00;;;;;;;;;;4981591;28;20031;-79
2024/02/25 02:54:13;;;;;;;1.80;0.77;;;;;;;;;;4972468;28;20046;-79
2024/02/25 02:56:38;;;;;;;1.55;0.65;;;;;;;;;;4970854;28;20049;-78
2024/02/25 02:59:04;;;;;;;1.80;0.90;;;;;;;;;;4966508;28;20062;-78
2024/02/25 03:01:29;;;;;;;2.75;1.40;;;;;;;;;;4980334;28;20080;-78
2024/02/25 03:03:55;;;;;;;0.82;0.77;;;;;;;;;;4981969;28;20661;-75
2024/02/25 03:06:20;;;;;;;0.63;0.38;;;;;;;;;;4977516;28;20562;-76
2024/02/25 03:08:46;;;;;;;2.90;0.95;;;;;;;;;;4960506;28;20042;-77
2024/02/25 03:11:11;;;;;;;1.00;0.80;;;;;;;;;;4967049;28;20103;-78
2024/02/25 03:13:36;;;;;;;0.80;0.80;;;;;;;;;;4981418;28;20033;-76
2024/02/25 03:16:02;;;;;;;1.77;0.88;;;;;;;;;;4970677;28;20088;-76
2024/02/25 03:18:27;;;;;;;1.30;0.90;;;;;;;;;;4980666;28;20064;-78
2024/02/25 03:20:53;;;;;;;3.13;0.93;;;;;;;;;;4980895;28;20133;-79
2024/02/25 03:23:18;;;;;;;0.73;0.73;;;;;;;;;;4984966;28;20036;-76
2024/02/25 03:25:43;;;;;;;1.98;0.95;;;;;;;;;;4985455;28;20049;-76
2024/02/25 03:28:09;;;;;;;0.65;0.65;;;;;;;;;;4976134;28;20045;-77
2024/02/25 03:30:34;;;;;;;1.10;0.77;;;;;;;;;;4977693;28;20058;-76
2024/02/25 03:33:05;;;;;;;1.63;0.70;;;;;;;;;;4972912;28;20454;-78
2024/02/25 03:35:31;;;;;;;0.65;0.43;;;;;;;;;;4983628;28;20841;-76
2024/02/25 03:37:57;;;;;;;2.05;0.82;;;;;;;;;;4983917;28;20050;-77
2024/02/25 03:40:23;;;;;;;0.52;0.45;;;;;;;;;;4984508;28;20056;-76
2024/02/25 03:42:48;;;;;;;1.40;0.90;;;;;;;;;;4976338;28;20660;-79
2024/02/25 03:45:15;;;;;;;10.60;2.97;;;;;;;;;;4971748;28;20506;-78
2024/02/25 03:47:40;;;;;;;12.30;3.88;;;;;;;;;;4982771;28;20046;-78
2024/02/25 03:50:06;;;;;;;2.10;1.02;;;;;;;;;;4964986;28;20070;-77
2024/02/25 03:52:31;;;;;;;1.20;0.43;;;;;;;;;;4979262;28;20554;-77
2024/02/25 03:54:57;;;;;;;2.80;1.30;;;;;;;;;;4976115;28;20045;-77
2024/02/25 03:57:22;;;;;;;3.35;1.27;;;;;;;;;;4986210;28;20068;-76
2024/02/25 03:59:48;;;;;;;1.65;1.17;;;;;;;;;;4973142;28;20045;-77
2024/02/25 04:02:13;;;;;;;0.70;0.70;;;;;;;;;;4965964;28;20046;-76
2024/02/25 04:04:39;;;;;;;1.70;1.13;;;;;;;;;;4962049;28;20057;-77
2024/02/25 04:07:05;;;;;;;1.73;0.93;;;;;;;;;;4956284;28;20042;-76
2024/02/25 04:09:31;;;;;;;1.00;0.80;;;;;;;;;;4981849;28;20107;-78
2024/02/25 04:11:57;;;;;;;1.52;0.90;;;;;;;;;;4968302;28;20498;-77
2024/02/25 04:14:22;;;;;;;0.60;0.60;;;;;;;;;;4949486;28;20118;-76
2024/02/25 04:16:47;;;;;;;1.13;1.02;;;;;;;;;;4977177;28;20494;-76
2024/02/25 04:19:13;;;;;;;1.70;0.95;;;;;;;;;;4959548;28;20155;-77
2024/02/25 04:21:39;;;;;;;1.85;0.70;;;;;;;;;;4969284;28;20211;-76
2024/02/25 04:24:05;;;;;;;0.85;0.57;;;;;;;;;;4971492;28;20047;-76
2024/02/25 04:26:31;;;;;;;1.35;0.40;;;;;;;;;;4972420;28;20045;-76
2024/02/25 04:28:57;;;;;;;1.70;1.00;;;;;;;;;;4979605;28;20197;-76
2024/02/25 04:31:22;;;;;;;1.00;0.82;;;;;;;;;;4971450;28;20118;-75
2024/02/25 04:33:47;;;;;;;1.58;1.10;;;;;;;;;;4966135;28;20345;-74
2024/02/25 04:36:19;;;;;;;0.55;0.55;;;;;;;;;;4969592;28;20055;-79
2024/02/25 04:38:46;;;;;;;0.95;0.73;;;;;;;;;;4962785;28;20118;-76
2024/02/25 04:41:11;;;;;;;0.50;0.50;;;;;;;;;;4969198;28;20069;-77
2024/02/25 04:43:37;;;;;;;1.77;0.80;;;;;;;;;;4964358;28;20047;-77
2024/02/25 04:46:03;;;;;;;0.63;0.50;;;;;;;;;;4969661;28;20057;-77
2024/02/25 04:48:28;;;;;;;1.75;1.00;;;;;;;;;;4982335;28;20515;-79
2024/02/25 04:50:56;;;;;;;3.22;0.82;;;;;;;;;;4951715;28;20514;-78
2024/02/25 04:53:22;;;;;;;2.72;1.00;;;;;;;;;;4973383;28;20065;-77
2024/02/25 04:55:47;;;;;;;2.55;1.30;;;;;;;;;;4956641;28;20054;-77
2024/02/25 04:58:13;;;;;;;0.95;0.70;;;;;;;;;;4980876;28;20049;-78
2024/02/25 05:00:38;;;;;;;2.35;1.42;;;;;;;;;;4975836;28;20053;-77
2024/02/25 05:03:05;;;;;;;1.38;0.90;;;;;;;;;;4974653;28;20585;-76
2024/02/25 05:05:30;;;;;;;1.30;0.80;;;;;;;;;;4962243;28;20076;-76
2024/02/25 05:07:56;;;;;;;0.90;0.60;;;;;;;;;;4963266;28;20551;-76
2024/02/25 05:10:22;;;;;;;1.13;0.98;;;;;;;;;;4963967;28;20042;-75
2024/02/25 05:12:48;;;;;;;1.75;0.63;;;;;;;;;;4968637;28;20135;-78
2024/02/25 05:15:14;;;;;;;1.90;0.90;;;;;;;;;;4967448;28;20046;-78
2024/02/25 05:17:39;;;;;;;3.22;0.70;;;;;;;;;;4963695;28;20042;-78
2024/02/25 05:20:06;;;;;;;3.63;1.25;;;;;;;;;;4966896;28;20076;-76
2024/02/25 05:22:32;;;;;;;1.25;1.15;;;;;;;;;;4977639;28;20046;-77
2024/02/25 05:24:57;;;;;;;1.25;0.88;;;;;;;;;;4944850;28;20041;-75
2024/02/25 05:27:28;;;;;;;1.58;1.05;;;;;;;;;;4951340;28;20084;-77
2024/02/25 05:29:54;;;;;;;;;;;;;;;;;;4925909;28;20038;-76
2024/02/25 05:32:20;;;;;;;0.32;0.32;;;;;;;;;;4971129;28;19943;-76
2024/02/25 05:34:45;;;;;;;1.40;0.90;;;;;;;;;;4961093;28;20097;-75
2024/02/25 05:37:11;;;;;;;1.52;1.00;;;;;;;;;;4940804;28;20058;-76
2024/02/25 05:39:37;;;;;;;0.93;0.52;;;;;;;;;;4956553;28;20057;-77
2024/02/25 05:42:04;;;;;;;2.67;0.75;;;;;;;;;;4960149;28;20034;-77
2024/02/25 05:44:29;;;;;;;1.13;0.80;;;;;;;;;;4946285;28;20058;-77
2024/02/25 05:46:55;;;;;;;1.30;1.10;;;;;;;;;;4950848;28;20050;-77
2024/02/25 05:49:20;;;;;;;1.48;0.90;;;;;;;;;;4961485;28;20046;-77
2024/02/25 05:51:45;;;;;;;1.67;1.00;;;;;;;;;;4973038;28;20050;-78
2024/02/25 05:54:11;;;;;;;1.25;1.08;;;;;;;;;;4961668;28;21239;-76
2024/02/25 05:56:37;;;;;;;0.75;0.75;;;;;;;;;;4957382;28;20073;-78
2024/02/25 05:59:02;;;;;;;2.17;1.98;;;;;;;;;;4964966;28;20091;-77
2024/02/25 06:01:33;;;;;;;1.98;1.77;;;;;;;;;;4951765;28;20038;-80
2024/02/25 06:03:59;;;;;;;2.30;1.63;;;;;;;;;;4967450;28;20043;-79
2024/02/25 06:06:25;;;;;;;1.55;1.30;;;;;;;;;;4974869;28;20045;-77
2024/02/25 06:08:50;;;;;;;3.55;1.60;;;;;;;;;;4974025;28;20411;-79
2024/02/25 06:11:16;;;;;;;3.28;1.83;;;;;;;;;;4974319;28;20576;-79
2024/02/25 06:13:41;;;;;;;3.67;1.83;;;;;;;;;;4966761;28;20042;-78
2024/02/25 06:16:06;;;;;;;3.42;1.70;;;;;;;;;;4950080;28;20149;-78
2024/02/25 06:18:32;;;;;;;3.83;2.00;;;;;;;;;;4972209;28;20045;-78
2024/02/25 06:20:57;;;;;;;3.38;1.83;;;;;;;;;;4956298;28;20035;-79
2024/02/25 06:23:23;;;;;;;3.53;2.00;;;;;;;;;;4953789;28;20722;-77
2024/02/25 06:25:48;;;;;;;2.95;1.70;;;;;;;;;;4972903;28;20053;-79
2024/02/25 06:28:14;;;;;;;5.57;2.40;;;;;;;;;;4976057;28;21116;-78
2024/02/25 06:30:39;;;;;;;3.08;1.90;;;;;;;;;;4953899;28;20718;-76
2024/02/25 06:33:04;;;;;;;14.45;4.45;;;;;;;;;;4969732;28;20122;-79
2024/02/25 06:35:30;;;;;;;2.58;1.70;;;;;;;;;;4956275;28;20443;-77
2024/02/25 06:37:55;;;;;;;2.72;1.65;;;;;;;;;;4963252;28;20097;-77
2024/02/25 06:40:21;;;;;;;1.75;1.30;;;;;;;;;;4969899;28;20038;-77
2024/02/25 06:42:46;;;;;;;1.58;1.25;;;;;;;;;;4961614;28;20050;-77
2024/02/25 06:45:12;;;;;;;1.67;1.40;;;;;;;;;;4967918;28;20100;-77
2024/02/25 06:47:37;;;;;;;1.92;1.30;;;;;;;;;;4959059;28;20043;-76
2024/02/25 06:50:03;;;;;;;3.33;1.40;;;;;;;;;;4961758;28;20034;-76
2024/02/25 06:52:28;;;;;;;3.95;1.67;;;;;;;;;;4952536;28;20045;-76
2024/02/25 06:54:54;;;;;;;3.28;2.00;;;;;;;;;;4968017;28;20050;-77
2024/02/25 06:57:19;;;;;;;6.82;2.90;;;;;;;;;;4961576;28;20050;-77
2024/02/25 06:59:45;;;;;;;3.75;2.35;;;;;;;;;;4974136;28;20129;-76
2024/02/25 07:02:10;;;;;;;5.10;2.92;;;;;;;;;;4963095;28;20042;-75
2024/02/25 07:04:35;;;;;;;4.43;2.47;;;;;;;;;;4948595;28;20058;-76
2024/02/25 07:07:01;;;;;;;3.03;2.00;;;;;;;;;;4953761;28;20042;-76
2024/02/25 07:09:27;;;;;;;4.05;2.13;;;;;;;;;;4940155;28;20122;-76
2024/02/25 07:11:52;;;;;;;2.38;1.65;;;;;;;;;;4961955;28;20864;-77
2024/02/25 07:14:18;;;;;;;2.75;1.60;;;;;;;;;;4963473;28;20073;-77
2024/02/25 07:16:44;;;;;;;2.70;1.80;;;;;;;;;;4970286;28;20042;-77
2024/02/25 07:19:09;;;;;;;1.90;1.80;;;;;;;;;;4962901;28;20050;-76
2024/02/25 07:21:35;;;;;;;2.83;1.80;;;;;;;;;;4942584;28;20594;-76
2024/02/25 07:24:00;;;;;;;2.65;1.60;;;;;;;;;;4969139;28;20113;-77
2024/02/25 07:26:25;;;;;;;2.67;1.73;;;;;;;;;;4938913;28;20065;-76
2024/02/25 07:28:52;;;;;;;2.25;1.90;;;;;;;;;;4946223;28;20039;-74
2024/02/25 07:31:20;;;;;;;2.42;1.80;;;;;;;;;;4969629;28;20129;-76
2024/02/25 07:33:47;;;;;;;1.88;1.45;;;;;;;;;;4948669;28;20172;-77
2024/02/25 07:36:14;;;;;;;4.53;1.77;;;;;;;;;;4963430;28;20046;-77
2024/02/25 07:38:40;;;;;;;3.10;1.90;;;;;;;;;;4968487;28;20048;-76
2024/02/25 07:41:06;;;;;;;1.67;1.58;;;;;;;;;;4962309;28;20035;-76
2024/02/25 07:43:35;;;;;;;3.03;1.83;;;;;;;;;;4954562;28;20057;-77
2024/02/25 07:46:02;;;;;;;3.88;1.90;;;;;;;;;;4964727;28;20034;-78
2024/02/25 07:48:28;;;;;;;2.45;1.80;;;;;;;;;;4962662;28;20038;-76
2024/02/25 07:50:53;;;;;;;1.67;1.40;;;;;;;;;;4963765;28;20103;-76
2024/02/25 07:53:19;;;;;;;3.50;2.10;;;;;;;;;;4954405;28;20561;-77
2024/02/25 07:55:44;;;;;;;2.22;1.30;;;;;;;;;;4964502;28;20065;-76
2024/02/25 07:58:09;;;;;;;1.60;1.30;;;;;;;;;;4958960;28;20119;-76
2024/02/25 08:00:35;;;;;;;1.35;1.25;;;;;;;;;;4958351;28;20058;-76
2024/02/25 08:03:01;;;;;;;3.70;1.70;;;;;;;;;;4960461;28;20034;-76
2024/02/25 08:05:26;;;;;;;1.88;1.42;;;;;;;;;;4947298;28;20141;-76
2024/02/25 08:07:53;;;;;;;1.27;0.90;;;;;;;;;;4945835;28;20590;-76
2024/02/25 08:10:21;;;;;;;1.95;1.58;;;;;;;;;;4954849;28;20061;-76
2024/02/25 08:12:47;;;;;;;2.72;1.02;;;;;;;;;;4957004;28;20587;-76
2024/02/25 08:15:13;;;;;;;2.10;1.45;;;;;;;;;;4955526;28;20081;-77
2024/02/25 08:17:38;;;;;;;3.75;1.70;;;;;;;;;;4966995;28;20042;-76
2024/02/25 08:20:04;;;;;;;3.33;1.90;;;;;;;;;;4957259;28;20034;-76
2024/02/25 08:22:36;;;;;;;2.97;1.88;;;;;;;;;;4960433;28;20038;-75
2024/02/25 08:25:02;;;;;;;3.70;2.20;;;;;;;;;;4936267;28;20046;-76
2024/02/25 08:27:32;;;;;;;3.03;1.83;;;;;;;;;;4970731;28;20050;-77
2024/02/25 08:30:01;;;;;;;7.15;3.83;;;;;;;;;;4966422;28;20061;-76
2024/02/25 08:32:26;;;;;;;2.65;1.60;;;;;;;;;;4916053;28;20046;-77
2024/02/25 08:34:55;;;;;;;2.72;2.05;;;;;;;;;;4962857;28;20580;-76
2024/02/25 08:37:24;;;;;;;1.98;1.15;;;;;;;;;;4956957;28;20522;-76
2024/02/25 08:39:50;;;;;;;2.13;1.20;;;;;;;;;;4965279;28;20072;-76
2024/02/25 08:42:18;;;;;;;1.65;1.20;;;;;;;;;;4962213;28;20065;-77
2024/02/25 08:44:43;;;;;;;5.22;1.60;;;;;;;;;;4982626;28;20443;-77
2024/02/25 08:47:09;;;;;;;2.47;1.80;;;;;;;;;;4955672;28;20126;-77
2024/02/25 08:49:36;;;;;;;2.80;1.90;;;;;;;;;;4980166;28;20045;-77
2024/02/25 08:52:01;;;;;;;2.25;1.20;;;;;;;;;;4967775;28;20309;-76
2024/02/25 08:54:27;;;;;;;1.65;1.20;;;;;;;;;;4952874;28;20066;-76
2024/02/25 08:56:54;;;;;;;2.60;1.75;;;;;;;;;;4956469;28;20050;-76
2024/02/25 08:59:19;;;;;;;2.20;1.30;;;;;;;;;;4968370;28;21313;-76
2024/02/25 09:01:45;;;;;;;0.98;0.88;;;;;;;;;;4961337;28;20038;-75
2024/02/25 09:04:12;;;;;;;2.53;1.80;;;;;;;;;;4953555;28;22367;-75
2024/02/25 09:06:38;;;;;;;1.48;0.90;;;;;;;;;;4976113;28;20042;-76
2024/02/25 09:09:04;;;;;;;2.92;1.90;;;;;;;;;;4966932;28;20041;-74
2024/02/25 09:11:29;;;;;;;5.95;2.13;;;;;;;;;;4977390;28;20042;-77
2024/02/25 09:13:54;;;;;;;2.85;1.75;;;;;;;;;;4969747;28;20073;-75
2024/02/25 09:16:21;;;;;;;2.25;1.67;;;;;;;;;;4971706;28;20047;-77
2024/02/25 09:18:46;;;;;;;3.97;2.10;;;;;;;;;;4977926;28;20575;-76
2024/02/25 09:21:12;;;;;;;1.73;1.58;;;;;;;;;;4960509;28;20042;-76
2024/02/25 09:23:37;;;;;;;1.33;1.20;;;;;;;;;;4928148;28;20050;-76
2024/02/25 09:26:06;;;;;;;3.00;1.70;;;;;;;;;;4959857;28;20541;-75
2024/02/25 09:28:32;;;;;;;1.33;0.80;;;;;;;;;;4974627;28;20135;-76
2024/02/25 09:30:57;;;;;;;2.85;1.75;;;;;;;;;;4965897;28;20438;-76
2024/02/25 09:33:23;;;;;;;2.20;1.95;;;;;;;;;;4966977;28;20034;-75
2024/02/25 09:35:48;;;;;;;4.18;1.70;;;;;;;;;;4964126;28;20040;-76
2024/02/25 09:38:14;;;;;;;1.77;1.40;;;;;;;;;;4958938;28;20050;-76
2024/02/25 09:40:39;;;;;;;2.15;1.52;;;;;;;;;;4973638;28;20128;-76
2024/02/25 09:43:11;;;;;;;1.50;1.10;;;;;;;;;;4936138;28;20133;-76
2024/02/25 09:45:41;;;;;;;1.70;1.60;;;;;;;;;;4966765;28;20042;-76
2024/02/25 09:48:10;;;;;;;2.40;1.30;;;;;;;;;;4941581;28;20880;-76
2024/02/25 09:50:36;;;;;;;0.63;0.63;;;;;;;;;;4965182;28;20034;-76
2024/02/25 09:53:02;;;;;;;0.90;0.85;;;;;;;;;;4946991;28;20039;-76
2024/02/25 09:55:28;;;;;;;0.80;0.60;;;;;;;;;;4954894;28;20048;-76
2024/02/25 09:57:53;;;;;;;2.00;1.10;;;;;;;;;;4964516;28;21634;-76
2024/02/25 10:00:19;;;;;;;4.05;1.60;;;;;;;;;;4968308;28;20574;-76
2024/02/25 10:02:45;;;;;;;1.83;1.13;;;;;;;;;;4955126;28;20041;-76
2024/02/25 10:05:15;;;;;;;2.15;1.13;;;;;;;;;;4951358;28;20046;-76
2024/02/25 10:07:40;;;;;;;0.95;0.80;;;;;;;;;;4942182;28;20047;-76
2024/02/25 10:10:06;;;;;;;0.40;0.40;;;;;;;;;;4953159;28;20908;-76
2024/02/25 10:12:32;;;;;;;3.38;1.10;;;;;;;;;;4964167;28;20141;-76
2024/02/25 10:14:58;;;;;;;0.50;0.50;;;;;;;;;;4968159;28;20121;-76
2024/02/25 10:17:24;;;;;;;0.63;0.60;;;;;;;;;;4958874;28;20689;-76
2024/02/25 10:19:55;;;;;;;1.60;0.68;;;;;;;;;;4949195;28;20121;-77
2024/02/25 10:22:24;;;;;;;1.30;0.80;;;;;;;;;;4969004;28;20495;-76
2024/02/25 10:24:50;;;;;;;1.73;1.10;;;;;;;;;;4951030;28;20066;-77
2024/02/25 10:27:18;;;;;;;1.13;0.93;;;;;;;;;;4947949;28;20090;-76
2024/02/25 10:29:54;;;;;;;2.17;1.15;;;;;;;;;;4957637;28;20136;-77
2024/02/25 10:32:29;;;;;;;1.02;0.73;;;;;;;;;;4955830;28;20207;-76
2024/02/25 10:34:59;;;;;;;1.75;0.98;;;;;;;;;;4928419;28;20057;-76
2024/02/25 10:37:26;;;;;;;1.52;1.20;;;;;;;;;;4960723;28;20041;-76
2024/02/25 10:39:59;;;;;;;0.77;0.73;;;;;;;;;;4946860;28;20158;-77
2024/02/25 10:42:26;;;;;;;1.10;0.98;;;;;;;;;;4948407;28;20144;-77
2024/02/25 10:44:53;;;;;;;0.85;0.70;;;;;;;;;;4961194;28;20083;-78
2024/02/25 10:47:20;;;;;;;0.85;0.63;;;;;;;;;;4960929;28;20064;-77
2024/02/25 10:49:46;;;;;;;2.47;1.20;;;;;;;;;;4960413;28;20035;-79
2024/02/25 10:52:13;;;;;;;1.50;1.27;;;;;;;;;;4971706;28;20042;-77
2024/02/25 10:54:39;;;;;;;0.68;0.68;;;;;;;;;;4956177;28;20039;-77
2024/02/25 10:57:06;;;;;;;0.95;0.68;;;;;;;;;;4969795;28;20040;-78
2024/02/25 10:59:31;;;;;;;1.23;1.10;;;;;;;;;;4951989;28;20115;-78
2024/02/25 11:01:59;;;;;;;0.60;0.60;;;;;;;;;;4956131;28;20050;-76
2024/02/25 11:04:26;;;;;;;1.10;0.82;;;;;;;;;;4949212;28;20519;-78
2024/02/25 11:06:54;;;;;;;0.82;0.80;;;;;;;;;;4964599;28;20828;-78
2024/02/25 11:09:22;;;;;;;0.75;0.75;;;;;;;;;;4966736;28;20038;-77
2024/02/25 11:11:48;;;;;;;0.40;0.40;;;;;;;;;;4926223;28;20413;-76
2024/02/25 11:14:18;;;;;;;1.23;0.93;;;;;;;;;;4969521;28;20051;-76
2024/02/25 11:16:47;;;;;;;2.17;1.05;;;;;;;;;;4953731;28;20060;-74
2024/02/25 11:19:16;;;;;;;1.17;1.08;;;;;;;;;;4965022;28;20042;-75
2024/02/25 11:21:42;;;;;;;1.63;1.10;;;;;;;;;;4949014;28;20034;-76
2024/02/25 11:24:12;;;;;;;0.52;0.52;;;;;;;;;;4963342;28;20066;-75
2024/02/25 11:26:38;;;;;;;2.53;1.02;;;;;;;;;;4958798;28;20037;-77
2024/02/25 11:29:24;;;;;;;1.45;0.90;;;;;;;;;;4972331;28;20490;-77
2024/02/25 11:31:58;;;;;;;0.75;0.75;;;;;;;;;;4944341;28;20051;-76
2024/02/25 11:34:30;;;;;;;1.00;0.75;;;;;;;;;;4933295;28;20101;-76
2024/02/25 11:36:57;;;;;;;0.57;0.57;;;;;;;;;;4951995;28;20062;-77
2024/02/25 11:39:28;;;;;;;2.17;0.90;;;;;;;;;;4947582;28;20072;-75
2024/02/25 11:41:55;;;;;;;0.80;0.80;;;;;;;;;;4964189;28;20083;-78
2024/02/25 11:44:25;;;;;;;0.40;0.40;;;;;;;;;;4958622;28;20041;-78
2024/02/25 11:46:57;;;;;;;1.08;0.55;;;;;;;;;;4960490;28;20535;-78
2024/02/25 11:49:24;;;;;;;0.70;0.70;;;;;;;;;;4922872;28;20043;-77
2024/02/25 11:51:50;;;;;;;0.85;0.75;;;;;;;;;;4968696;28;20038;-76
2024/02/25 11:54:15;;;;;;;1.05;0.90;;;;;;;;;;4952343;28;20039;-74
2024/02/25 11:56:41;;;;;;;0.82;0.65;;;;;;;;;;4964574;28;20046;-75
2024/02/25 11:59:08;;;;;;;1.10;0.82;;;;;;;;;;4952261;28;20061;-76
2024/02/25 12:01:35;;;;;;;2.90;0.82;;;;;;;;;;4968775;28;20053;-74
2024/02/25 12:04:00;;;;;;;1.08;0.60;;;;;;;;;;4949167;28;20108;-76
2024/02/25 12:06:26;;;;;;;0.90;0.50;;;;;;;;;;4960309;28;20094;-75
2024/02/25 12:08:51;;;;;;;0.40;0.40;;;;;;;;;;4959079;28;20730;-75
2024/02/25 12:11:18;;;;;;;0.20;0.20;;;;;;;;;;4942983;28;20112;-78
2024/02/25 12:13:45;;;;;;;1.52;0.57;;;;;;;;;;4971218;28;20082;-80
2024/02/25 12:16:13;;;;;;;0.32;0.30;;;;;;;;;;4965506;28;20050;-79
2024/02/25 12:18:39;;;;;;;1.70;0.88;;;;;;;;;;4951374;28;20403;-77
2024/02/25 12:21:05;;;;;;;1.95;0.80;;;;;;;;;;4962015;28;20046;-78
2024/02/25 12:23:31;;;;;;;0.73;0.73;;;;;;;;;;4974144;28;20733;-75
2024/02/25 12:26:08;;;;;;;0.82;0.60;;;;;;;;;;4967283;28;20027;-77
2024/02/25 12:28:37;;;;;;;0.82;0.70;;;;;;;;;;4951974;28;20112;-75
2024/02/25 12:31:06;;;;;;;0.30;0.30;;;;;;;;;;4966550;28;20117;-77
2024/02/25 12:33:32;;;;;;;0.50;0.50;;;;;;;;;;4969359;28;20042;-75
2024/02/25 12:35:58;;;;;;;1.08;0.60;;;;;;;;;;4955540;28;20042;-76
2024/02/25 12:38:23;;;;;;;0.88;0.60;;;;;;;;;;4963869;28;20077;-79
2024/02/25 12:40:54;;;;;;;0.38;0.38;;;;;;;;;;4972855;28;20040;-77
2024/02/25 12:43:19;;;;;;;2.00;0.60;;;;;;;;;;4952160;28;20049;-78
2024/02/25 12:45:46;;;;;;;1.73;0.70;;;;;;;;;;4968056;28;20038;-77
2024/02/25 12:48:12;;;;;;;0.50;0.50;;;;;;;;;;4967541;28;20053;-78
2024/02/25 12:50:37;;;;;;;1.83;0.63;;;;;;;;;;4952881;28;20443;-78
2024/02/25 12:53:06;;;;;;;0.82;0.80;;;;;;;;;;4951566;28;20039;-77
2024/02/25 12:55:32;;;;;;;2.35;0.60;;;;;;;;;;4961165;28;20504;-79
2024/02/25 12:57:58;;;;;;;11.05;1.23;;;;;;;;;;4938561;28;20399;-79
2024/02/25 13:00:23;;;;;;;0.60;0.60;;;;;;;;;;4941615;28;20045;-79
2024/02/25 13:02:48;;;;;;;1.20;0.65;;;;;;;;;;4958763;28;20042;-77
2024/02/25 13:05:14;;;;;;;1.65;0.70;;;;;;;;;;4938659;28;20043;-77
2024/02/25 13:07:39;;;;;;;0.55;0.30;;;;;;;;;;4939292;28;20650;-77
2024/02/25 13:10:05;;;;;;;1.02;0.80;;;;;;;;;;4952393;28;20038;-77
2024/02/25 13:12:33;;;;;;;0.45;0.32;;;;;;;;;;4956461;28;20645;-77
2024/02/25 13:15:00;;;;;;;0.80;0.60;;;;;;;;;;4930741;28;20091;-77
2024/02/25 13:17:28;;;;;;;1.00;0.20;;;;;;;;;;4971300;28;20052;-79
2024/02/25 13:19:54;;;;;;;1.73;0.75;;;;;;;;;;4951344;28;20066;-81
2024/02/25 13:22:21;;;;;;;0.30;0.28;;;;;;;;;;4963633;28;20062;-80
2024/02/25 13:24:47;;;;;;;0.68;0.68;;;;;;;;;;4961697;28;20038;-80
2024/02/25 13:27:12;;;;;;;1.08;0.43;;;;;;;;;;4965945;28;20593;-76
2024/02/25 13:29:38;;;;;;;1.38;0.80;;;;;;;;;;4973974;28;20129;-79
2024/02/25 13:32:04;;;;;;;1.00;0.65;;;;;;;;;;4965726;28;20137;-81
2024/02/25 13:34:29;;;;;;;1.33;0.80;;;;;;;;;;4970409;28;20038;-79
2024/02/25 13:36:55;;;;;;;0.82;0.52;;;;;;;;;;4961421;28;20743;-78
2024/02/25 13:39:20;;;;;;;0.65;0.65;;;;;;;;;;4962733;28;20041;-79
2024/02/25 13:41:46;;;;;;;1.05;0.70;;;;;;;;;;4968571;28;20122;-80
2024/02/25 13:44:11;;;;;;;0.90;0.57;;;;;;;;;;4958576;28;20458;-79
2024/02/25 13:46:37;;;;;;;1.30;0.50;;;;;;;;;;4964588;28;20054;-78
2024/02/25 13:49:03;;;;;;;0.68;0.68;;;;;;;;;;4940081;28;20035;-78
2024/02/25 13:51:30;;;;;;;1.27;0.50;;;;;;;;;;4955809;28;20034;-76
2024/02/25 13:53:55;;;;;;;1.80;0.90;;;;;;;;;;4973197;28;20101;-78
2024/02/25 13:56:20;;;;;;;0.70;0.47;;;;;;;;;;4968276;28;20038;-78
2024/02/25 13:58:46;;;;;;;0.35;0.30;;;;;;;;;;4947853;28;20058;-77
2024/02/25 14:01:12;;;;;;;0.77;0.60;;;;;;;;;;4967548;28;20037;-77
2024/02/25 14:03:38;;;;;;;0.55;0.55;;;;;;;;;;4974757;28;20108;-75
2024/02/25 14:06:05;;;;;;;0.50;0.50;;;;;;;;;;4972555;28;20060;-77
2024/02/25 14:08:30;;;;;;;0.55;0.55;;;;;;;;;;4966727;28;20062;-77
2024/02/25 14:10:55;;;;;;;1.63;0.50;;;;;;;;;;4975436;28;20219;-77
2024/02/25 14:13:21;;;;;;;1.75;0.50;;;;;;;;;;4968145;28;20066;-77
2024/02/25 14:15:46;;;;;;;1.35;0.60;;;;;;;;;;4967148;28;20046;-78
2024/02/25 14:18:15;;;;;;;0.50;0.50;;;;;;;;;;4977613;28;20132;-77
2024/02/25 14:20:40;;;;;;;1.05;0.57;;;;;;;;;;4970294;28;20076;-78
2024/02/25 14:23:08;;;;;;;0.73;0.40;;;;;;;;;;4964788;28;20144;-77
2024/02/25 14:25:34;;;;;;;0.52;0.50;;;;;;;;;;4961550;28;20153;-78
2024/02/25 14:28:00;;;;;;;0.50;0.50;;;;;;;;;;4968171;28;20045;-80
2024/02/25 14:30:25;;;;;;;0.60;0.60;;;;;;;;;;4961743;28;20046;-78
2024/02/25 14:32:51;;;;;;;3.80;0.50;;;;;;;;;;4953582;28;20177;-76
2024/02/25 14:35:16;;;;;;;0.35;0.35;;;;;;;;;;4956117;28;20121;-79
2024/02/25 14:37:41;;;;;;;0.45;0.40;;;;;;;;;;4958688;28;20141;-76